sensor_id;sensor_type;location;lat;lon;timestamp;noise_LAeq;noise_LA_min;noise_LA_max;noise_LA01;noise_LA95
42701;Laerm;28316;49.504;8.526;2023-03-12T00:00:49;41.46;40.13;42.64;;
42701;Laerm;28316;49.504;8.526;2023-03-12T00:03:15;41.48;40.13;42.71;;
42701;Laerm;28316;49.504;8.526;2023-03-12T00:05:42;41.50;40.23;42.59;;
42701;Laerm;28316;49.504;8.526;2023-03-12T00:08:09;41.52;40.03;42.71;;
42701;Laerm;28316;49.504;8.526;2023-03-12T00:10:39;41.53;40.23;42.65;;
42701;Laerm;28316;49.504;8.526;2023-03-12T00:13:06;41.54;40.03;42.88;;
42701;Laerm;28316;49.504;8.526;2023-03-12T00:15:36;41.54;39.92;42.82;;
42701;Laerm;28316;49.504;8.526;2023-03-12T00:18:02;41.56;40.13;43.09;;
42701;Laerm;28316;49.504;8.526;2023-03-12T00:20:28;41.59;40.03;42.71;;
42701;Laerm;28316;49.504;8.526;2023-03-12T00:22:54;41.61;40.23;43.04;;
42701;Laerm;28316;49.504;8.526;2023-03-12T00:25:19;41.62;40.13;42.88;;
42701;Laerm;28316;49.504;8.526;2023-03-12T00:27:45;41.61;40.03;42.82;;
42701;Laerm;28316;49.504;8.526;2023-03-12T00:30:11;41.60;40.03;42.76;;
42701;Laerm;28316;49.504;8.526;2023-03-12T00:32:37;41.60;40.33;42.98;;
42701;Laerm;28316;49.504;8.526;2023-03-12T00:35:05;41.60;40.23;42.71;;
42701;Laerm;28316;49.504;8.526;2023-03-12T00:37:30;41.60;40.23;42.65;;
42701;Laerm;28316;49.504;8.526;2023-03-12T00:39:59;41.60;40.08;42.71;;
42701;Laerm;28316;49.504;8.526;2023-03-12T00:42:27;41.63;40.23;42.82;;
42701;Laerm;28316;49.504;8.526;2023-03-12T00:44:53;41.62;40.23;42.88;;
42701;Laerm;28316;49.504;8.526;2023-03-12T00:47:19;41.62;40.43;42.76;;
42701;Laerm;28316;49.504;8.526;2023-03-12T00:49:44;41.59;40.23;42.88;;
42701;Laerm;28316;49.504;8.526;2023-03-12T00:52:10;41.58;40.03;42.59;;
42701;Laerm;28316;49.504;8.526;2023-03-12T00:54:36;41.59;40.33;42.71;;
42701;Laerm;28316;49.504;8.526;2023-03-12T00:57:02;41.54;40.03;42.59;;
42701;Laerm;28316;49.504;8.526;2023-03-12T00:59:28;41.60;40.13;42.88;;
42701;Laerm;28316;49.504;8.526;2023-03-12T01:01:54;41.66;40.23;43.14;;
42701;Laerm;28316;49.504;8.526;2023-03-12T01:04:19;41.65;40.23;42.93;;
42701;Laerm;28316;49.504;8.526;2023-03-12T01:06:45;41.61;39.81;42.88;;
42701;Laerm;28316;49.504;8.526;2023-03-12T01:09:11;41.60;40.23;42.76;;
42701;Laerm;28316;49.504;8.526;2023-03-12T01:11:37;41.60;40.13;42.76;;
42701;Laerm;28316;49.504;8.526;2023-03-12T01:14:05;41.57;40.23;42.71;;
42701;Laerm;28316;49.504;8.526;2023-03-12T01:16:31;41.59;40.23;42.65;;
42701;Laerm;28316;49.504;8.526;2023-03-12T01:18:59;41.54;40.03;42.71;;
42701;Laerm;28316;49.504;8.526;2023-03-12T01:21:26;41.57;40.13;42.76;;
42701;Laerm;28316;49.504;8.526;2023-03-12T01:23:53;41.52;40.03;42.71;;
42701;Laerm;28316;49.504;8.526;2023-03-12T01:26:20;41.49;40.13;42.76;;
42701;Laerm;28316;49.504;8.526;2023-03-12T01:28:46;41.35;39.58;42.47;;
42701;Laerm;28316;49.504;8.526;2023-03-12T01:31:17;41.28;39.81;42.47;;
42701;Laerm;28316;49.504;8.526;2023-03-12T01:33:44;41.54;39.92;42.88;;
42701;Laerm;28316;49.504;8.526;2023-03-12T01:36:22;41.65;40.33;42.82;;
42701;Laerm;28316;49.504;8.526;2023-03-12T01:38:53;41.66;40.13;42.76;;
42701;Laerm;28316;49.504;8.526;2023-03-12T01:41:21;41.67;40.03;42.88;;
42701;Laerm;28316;49.504;8.526;2023-03-12T01:43:47;41.57;40.13;42.93;;
42701;Laerm;28316;49.504;8.526;2023-03-12T01:51:46;41.56;40.13;42.65;;
42701;Laerm;28316;49.504;8.526;2023-03-12T01:56:59;41.64;40.23;42.85;;
42701;Laerm;28316;49.504;8.526;2023-03-12T01:59:35;41.68;40.23;42.82;;
42701;Laerm;28316;49.504;8.526;2023-03-12T02:02:03;41.69;40.43;42.93;;
42701;Laerm;28316;49.504;8.526;2023-03-12T02:04:32;41.71;40.43;42.93;;
42701;Laerm;28316;49.504;8.526;2023-03-12T02:07:06;41.77;40.53;42.82;;
42701;Laerm;28316;49.504;8.526;2023-03-12T02:09:39;41.77;40.33;42.82;;
42701;Laerm;28316;49.504;8.526;2023-03-12T02:12:06;41.78;40.33;42.82;;
42701;Laerm;28316;49.504;8.526;2023-03-12T02:14:32;41.77;40.43;43.09;;
42701;Laerm;28316;49.504;8.526;2023-03-12T02:16:58;41.74;40.43;42.88;;
42701;Laerm;28316;49.504;8.526;2023-03-12T02:19:54;41.73;40.33;42.82;;
42701;Laerm;28316;49.504;8.526;2023-03-12T02:22:24;41.72;40.33;42.82;;
42701;Laerm;28316;49.504;8.526;2023-03-12T02:27:47;41.73;40.43;42.82;;
42701;Laerm;28316;49.504;8.526;2023-03-12T02:30:13;41.71;40.33;42.76;;
42701;Laerm;28316;49.504;8.526;2023-03-12T02:32:41;41.71;40.23;42.88;;
42701;Laerm;28316;49.504;8.526;2023-03-12T02:35:08;41.74;40.23;42.93;;
42701;Laerm;28316;49.504;8.526;2023-03-12T02:37:34;41.75;40.53;42.82;;
42701;Laerm;28316;49.504;8.526;2023-03-12T02:40:19;41.72;40.43;43.19;;
42701;Laerm;28316;49.504;8.526;2023-03-12T02:42:48;41.68;40.43;42.82;;
42701;Laerm;28316;49.504;8.526;2023-03-12T02:45:14;41.59;40.13;42.65;;
42701;Laerm;28316;49.504;8.526;2023-03-12T02:47:40;41.50;39.81;42.76;;
42701;Laerm;28316;49.504;8.526;2023-03-12T02:50:06;41.39;40.03;42.76;;
42701;Laerm;28316;49.504;8.526;2023-03-12T02:52:32;41.35;40.03;42.47;;
42701;Laerm;28316;49.504;8.526;2023-03-12T02:55:01;41.33;39.70;42.47;;
42701;Laerm;28316;49.504;8.526;2023-03-12T02:57:26;41.35;40.03;42.88;;
42701;Laerm;28316;49.504;8.526;2023-03-12T02:59:52;41.34;39.99;42.53;;
42701;Laerm;28316;49.504;8.526;2023-03-12T03:02:18;41.36;39.92;42.65;;
42701;Laerm;28316;49.504;8.526;2023-03-12T03:04:44;41.44;39.81;42.59;;
42701;Laerm;28316;49.504;8.526;2023-03-12T03:07:10;41.51;40.33;42.71;;
42701;Laerm;28316;49.504;8.526;2023-03-12T03:09:35;41.55;40.13;42.59;;
42701;Laerm;28316;49.504;8.526;2023-03-12T03:12:01;41.59;40.33;42.76;;
42701;Laerm;28316;49.504;8.526;2023-03-12T03:14:27;41.67;40.33;42.82;;
42701;Laerm;28316;49.504;8.526;2023-03-12T03:16:52;41.71;40.33;42.82;;
42701;Laerm;28316;49.504;8.526;2023-03-12T03:19:18;41.73;40.53;42.76;;
42701;Laerm;28316;49.504;8.526;2023-03-12T03:21:44;41.75;40.36;42.88;;
42701;Laerm;28316;49.504;8.526;2023-03-12T03:24:10;41.74;40.18;43.14;;
42701;Laerm;28316;49.504;8.526;2023-03-12T03:26:36;41.75;40.33;42.76;;
42701;Laerm;28316;49.504;8.526;2023-03-12T03:29:02;41.79;40.43;43.09;;
42701;Laerm;28316;49.504;8.526;2023-03-12T03:31:28;41.79;40.43;42.98;;
42701;Laerm;28316;49.504;8.526;2023-03-12T03:33:54;41.83;40.62;42.93;;
42701;Laerm;28316;49.504;8.526;2023-03-12T03:36:19;41.80;40.33;43.09;;
42701;Laerm;28316;49.504;8.526;2023-03-12T03:38:47;41.68;40.43;42.88;;
42701;Laerm;28316;49.504;8.526;2023-03-12T03:41:19;41.42;39.81;42.71;;
42701;Laerm;28316;49.504;8.526;2023-03-12T03:43:46;41.34;39.81;42.59;;
42701;Laerm;28316;49.504;8.526;2023-03-12T03:46:13;41.31;39.92;42.36;;
42701;Laerm;28316;49.504;8.526;2023-03-12T03:48:40;41.28;39.81;42.59;;
42701;Laerm;28316;49.504;8.526;2023-03-12T03:51:07;41.55;40.03;42.76;;
42701;Laerm;28316;49.504;8.526;2023-03-12T03:53:33;41.66;40.08;42.88;;
42701;Laerm;28316;49.504;8.526;2023-03-12T03:56:09;41.76;40.13;42.88;;
42701;Laerm;28316;49.504;8.526;2023-03-12T03:58:35;41.84;40.53;42.98;;
42701;Laerm;28316;49.504;8.526;2023-03-12T04:01:01;41.84;40.62;43.04;;
42701;Laerm;28316;49.504;8.526;2023-03-12T04:03:27;41.96;40.43;43.24;;
42701;Laerm;28316;49.504;8.526;2023-03-12T04:05:59;42.00;40.71;43.14;;
42701;Laerm;28316;49.504;8.526;2023-03-12T04:08:25;42.02;40.53;43.14;;
42701;Laerm;28316;49.504;8.526;2023-03-12T04:10:52;42.03;40.80;43.39;;
42701;Laerm;28316;49.504;8.526;2023-03-12T04:13:18;42.03;40.71;43.19;;
42701;Laerm;28316;49.504;8.526;2023-03-12T04:15:53;42.03;40.71;43.19;;
42701;Laerm;28316;49.504;8.526;2023-03-12T04:18:19;42.01;40.62;43.24;;
42701;Laerm;28316;49.504;8.526;2023-03-12T04:20:45;41.96;40.62;43.09;;
42701;Laerm;28316;49.504;8.526;2023-03-12T04:23:11;41.91;40.53;42.98;;
42701;Laerm;28316;49.504;8.526;2023-03-12T04:25:37;41.81;40.53;42.93;;
42701;Laerm;28316;49.504;8.526;2023-03-12T04:28:04;41.72;40.23;42.88;;
42701;Laerm;28316;49.504;8.526;2023-03-12T04:30:30;41.68;40.23;42.82;;
42701;Laerm;28316;49.504;8.526;2023-03-12T04:32:56;41.83;40.53;43.14;;
42701;Laerm;28316;49.504;8.526;2023-03-12T04:35:22;41.93;40.71;42.93;;
42701;Laerm;28316;49.504;8.526;2023-03-12T04:37:50;41.96;40.43;43.09;;
42701;Laerm;28316;49.504;8.526;2023-03-12T04:40:16;41.95;40.53;42.98;;
42701;Laerm;28316;49.504;8.526;2023-03-12T04:42:44;41.93;40.54;43.19;;
42701;Laerm;28316;49.504;8.526;2023-03-12T04:45:10;41.87;40.33;43.00;;
42701;Laerm;28316;49.504;8.526;2023-03-12T04:47:36;41.85;40.62;43.04;;
42701;Laerm;28316;49.504;8.526;2023-03-12T04:50:02;41.87;40.18;43.09;;
42701;Laerm;28316;49.504;8.526;2023-03-12T04:52:28;41.90;40.71;43.04;;
42701;Laerm;28316;49.504;8.526;2023-03-12T04:54:55;41.92;40.62;42.98;;
42701;Laerm;28316;49.504;8.526;2023-03-12T04:57:21;41.94;40.71;43.04;;
42701;Laerm;28316;49.504;8.526;2023-03-12T04:59:47;41.96;40.80;43.09;;
42701;Laerm;28316;49.504;8.526;2023-03-12T05:02:13;41.97;40.62;43.09;;
42701;Laerm;28316;49.504;8.526;2023-03-12T05:04:38;41.99;40.80;43.09;;
42701;Laerm;28316;49.504;8.526;2023-03-12T05:07:04;41.99;40.71;43.19;;
42701;Laerm;28316;49.504;8.526;2023-03-12T05:09:30;42.02;40.71;43.19;;
42701;Laerm;28316;49.504;8.526;2023-03-12T05:11:56;42.01;40.71;44.23;;
42701;Laerm;28316;49.504;8.526;2023-03-12T05:14:22;41.98;40.62;43.46;;
42701;Laerm;28316;49.504;8.526;2023-03-12T05:16:48;41.93;40.53;44.35;;
42701;Laerm;28316;49.504;8.526;2023-03-12T05:19:14;41.57;40.13;42.76;;
42701;Laerm;28316;49.504;8.526;2023-03-12T05:21:40;41.13;39.46;42.47;;
42701;Laerm;28316;49.504;8.526;2023-03-12T05:24:08;40.75;38.95;42.22;;
42701;Laerm;28316;49.504;8.526;2023-03-12T05:26:35;40.33;38.67;41.75;;
42701;Laerm;28316;49.504;8.526;2023-03-12T05:29:02;39.96;38.05;41.53;;
42701;Laerm;28316;49.504;8.526;2023-03-12T05:31:29;39.59;37.32;41.30;;
42701;Laerm;28316;49.504;8.526;2023-03-12T05:33:58;39.23;36.69;41.14;;
42701;Laerm;28316;49.504;8.526;2023-03-12T05:36:24;38.95;36.91;40.98;;
42701;Laerm;28316;49.504;8.526;2023-03-12T05:38:50;38.72;36.20;40.62;;
42701;Laerm;28316;49.504;8.526;2023-03-12T05:41:23;38.54;36.20;40.71;;
42701;Laerm;28316;49.504;8.526;2023-03-12T05:43:49;38.37;35.66;40.43;;
42701;Laerm;28316;49.504;8.526;2023-03-12T05:46:16;38.26;35.66;40.33;;
42701;Laerm;28316;49.504;8.526;2023-03-12T05:48:41;38.19;35.66;40.33;;
42701;Laerm;28316;49.504;8.526;2023-03-12T05:51:07;38.14;35.66;40.43;;
42701;Laerm;28316;49.504;8.526;2023-03-12T05:53:33;38.06;35.36;40.43;;
42701;Laerm;28316;49.504;8.526;2023-03-12T05:56:09;37.99;35.04;40.03;;
42701;Laerm;28316;49.504;8.526;2023-03-12T05:58:35;37.87;34.69;40.13;;
42701;Laerm;28316;49.504;8.526;2023-03-12T06:01:09;37.77;34.69;40.13;;
42701;Laerm;28316;49.504;8.526;2023-03-12T06:03:36;37.72;34.69;40.13;;
42701;Laerm;28316;49.504;8.526;2023-03-12T06:06:01;37.66;34.31;40.03;;
42701;Laerm;28316;49.504;8.526;2023-03-12T06:08:27;37.72;34.69;40.98;;
42701;Laerm;28316;49.504;8.526;2023-03-12T06:10:53;37.72;34.69;40.45;;
42701;Laerm;28316;49.504;8.526;2023-03-12T06:13:21;37.83;34.31;41.46;;
42701;Laerm;28316;49.504;8.526;2023-03-12T06:15:47;37.74;34.31;41.82;;
42701;Laerm;28316;49.504;8.526;2023-03-12T06:18:14;37.75;34.69;40.33;;
42701;Laerm;28316;49.504;8.526;2023-03-12T06:20:40;37.71;34.69;40.23;;
42701;Laerm;28316;49.504;8.526;2023-03-12T06:23:06;37.68;34.31;40.98;;
42701;Laerm;28316;49.504;8.526;2023-03-12T06:25:32;37.65;33.90;40.43;;
42701;Laerm;28316;49.504;8.526;2023-03-12T06:27:58;37.64;33.90;49.96;;
42701;Laerm;28316;49.504;8.526;2023-03-12T06:30:24;37.75;33.90;51.85;;
42701;Laerm;28316;49.504;8.526;2023-03-12T06:32:51;37.34;33.44;53.34;;
42701;Laerm;28316;49.504;8.526;2023-03-12T06:35:17;37.33;33.90;45.28;;
42701;Laerm;28316;49.504;8.526;2023-03-12T06:37:43;38.35;32.93;67.93;;
42701;Laerm;28316;49.504;8.526;2023-03-12T06:40:09;37.78;32.93;46.57;;
42701;Laerm;28316;49.504;8.526;2023-03-12T06:42:36;37.92;34.31;47.59;;
42701;Laerm;28316;49.504;8.526;2023-03-12T06:45:02;37.18;32.93;39.70;;
42701;Laerm;28316;49.504;8.526;2023-03-12T06:47:28;37.13;33.44;40.03;;
42701;Laerm;28316;49.504;8.526;2023-03-12T06:49:53;37.10;32.93;50.52;;
42701;Laerm;28316;49.504;8.526;2023-03-12T06:52:19;37.10;32.93;39.46;;
42701;Laerm;28316;49.504;8.526;2023-03-12T06:54:45;37.12;33.44;44.87;;
42701;Laerm;28316;49.504;8.526;2023-03-12T06:57:11;37.13;32.93;39.92;;
42701;Laerm;28316;49.504;8.526;2023-03-12T06:59:36;38.09;33.44;67.32;;
42701;Laerm;28316;49.504;8.526;2023-03-12T07:02:02;37.05;32.93;39.70;;
42701;Laerm;28316;49.504;8.526;2023-03-12T07:04:29;37.03;33.44;39.46;;
42701;Laerm;28316;49.504;8.526;2023-03-12T07:06:55;36.99;33.44;39.58;;
42701;Laerm;28316;49.504;8.526;2023-03-12T07:09:21;36.96;32.93;39.46;;
42701;Laerm;28316;49.504;8.526;2023-03-12T07:11:47;36.98;33.44;39.70;;
42701;Laerm;28316;49.504;8.526;2023-03-12T07:14:13;36.97;33.44;39.58;;
42701;Laerm;28316;49.504;8.526;2023-03-12T07:16:38;36.96;32.58;39.68;;
42701;Laerm;28316;49.504;8.526;2023-03-12T07:19:04;37.00;32.35;39.70;;
42701;Laerm;28316;49.504;8.526;2023-03-12T07:21:30;37.00;32.35;39.58;;
42701;Laerm;28316;49.504;8.526;2023-03-12T07:23:56;37.00;32.93;39.92;;
42701;Laerm;28316;49.504;8.526;2023-03-12T07:26:23;37.01;32.35;39.21;;
42701;Laerm;28316;49.504;8.526;2023-03-12T07:28:48;36.96;30.89;39.58;;
42701;Laerm;28316;49.504;8.526;2023-03-12T07:31:14;36.95;31.68;39.58;;
42701;Laerm;28316;49.504;8.526;2023-03-12T07:33:40;36.90;32.93;39.46;;
42701;Laerm;28316;49.504;8.526;2023-03-12T07:36:06;36.92;33.44;39.34;;
42701;Laerm;28316;49.504;8.526;2023-03-12T07:38:32;36.97;32.35;39.34;;
42701;Laerm;28316;49.504;8.526;2023-03-12T07:40:58;36.97;32.93;39.46;;
42701;Laerm;28316;49.504;8.526;2023-03-12T07:43:25;36.95;31.68;39.70;;
42701;Laerm;28316;49.504;8.526;2023-03-12T07:45:51;36.90;32.93;39.46;;
42701;Laerm;28316;49.504;8.526;2023-03-12T07:48:17;36.87;32.35;39.58;;
42701;Laerm;28316;49.504;8.526;2023-03-12T07:50:46;36.85;32.35;39.46;;
42701;Laerm;28316;49.504;8.526;2023-03-12T07:53:12;36.84;31.68;39.46;;
42701;Laerm;28316;49.504;8.526;2023-03-12T07:55:37;36.80;32.35;39.46;;
42701;Laerm;28316;49.504;8.526;2023-03-12T07:58:03;36.78;32.35;39.81;;
42701;Laerm;28316;49.504;8.526;2023-03-12T08:00:30;36.74;31.68;39.46;;
42701;Laerm;28316;49.504;8.526;2023-03-12T08:02:56;36.71;31.68;39.46;;
42701;Laerm;28316;49.504;8.526;2023-03-12T08:05:22;36.67;32.35;39.58;;
42701;Laerm;28316;49.504;8.526;2023-03-12T08:07:51;36.65;31.68;39.34;;
42701;Laerm;28316;49.504;8.526;2023-03-12T08:10:17;36.67;30.89;39.58;;
42701;Laerm;28316;49.504;8.526;2023-03-12T08:12:43;36.61;29.92;39.46;;
42701;Laerm;28316;49.504;8.526;2023-03-12T08:15:10;36.62;31.68;39.46;;
42701;Laerm;28316;49.504;8.526;2023-03-12T08:17:37;36.61;31.68;39.70;;
42701;Laerm;28316;49.504;8.526;2023-03-12T08:20:04;36.56;30.89;39.46;;
42701;Laerm;28316;49.504;8.526;2023-03-12T08:22:34;36.56;28.67;39.21;;
42701;Laerm;28316;49.504;8.526;2023-03-12T08:25:00;36.57;31.68;39.81;;
42701;Laerm;28316;49.504;8.526;2023-03-12T08:27:26;36.55;31.68;39.46;;
42701;Laerm;28316;49.504;8.526;2023-03-12T08:29:51;36.55;29.92;39.46;;
42701;Laerm;28316;49.504;8.526;2023-03-12T08:32:17;36.58;30.89;39.46;;
42701;Laerm;28316;49.504;8.526;2023-03-12T08:34:43;36.57;30.89;39.34;;
42701;Laerm;28316;49.504;8.526;2023-03-12T08:37:09;36.57;31.68;39.70;;
42701;Laerm;28316;49.504;8.526;2023-03-12T08:39:34;36.51;30.89;39.81;;
42701;Laerm;28316;49.504;8.526;2023-03-12T08:42:01;36.51;30.89;39.21;;
42701;Laerm;28316;49.504;8.526;2023-03-12T08:44:27;36.49;31.68;39.21;;
42701;Laerm;28316;49.504;8.526;2023-03-12T08:46:53;36.51;31.68;39.81;;
42701;Laerm;28316;49.504;8.526;2023-03-12T08:49:20;36.48;31.68;39.34;;
42701;Laerm;28316;49.504;8.526;2023-03-12T08:51:46;36.46;30.89;39.34;;
42701;Laerm;28316;49.504;8.526;2023-03-12T08:54:12;36.44;30.89;40.03;;
42701;Laerm;28316;49.504;8.526;2023-03-12T08:56:38;36.43;32.35;39.34;;
42701;Laerm;28316;49.504;8.526;2023-03-12T08:59:11;36.46;30.89;39.46;;
42701;Laerm;28316;49.504;8.526;2023-03-12T09:01:38;36.42;29.92;39.34;;
42701;Laerm;28316;49.504;8.526;2023-03-12T09:04:05;36.42;30.89;39.58;;
42701;Laerm;28316;49.504;8.526;2023-03-12T09:06:31;36.41;30.89;39.58;;
42701;Laerm;28316;49.504;8.526;2023-03-12T09:08:58;36.41;31.68;39.46;;
42701;Laerm;28316;49.504;8.526;2023-03-12T09:11:33;36.37;29.92;39.34;;
42701;Laerm;28316;49.504;8.526;2023-03-12T09:14:00;36.37;29.92;39.46;;
42701;Laerm;28316;49.504;8.526;2023-03-12T09:16:26;36.39;29.92;39.46;;
42701;Laerm;28316;49.504;8.526;2023-03-12T09:18:53;36.39;31.68;39.46;;
42701;Laerm;28316;49.504;8.526;2023-03-12T09:21:19;36.36;29.92;39.81;;
42701;Laerm;28316;49.504;8.526;2023-03-12T09:23:45;36.35;23.90;39.58;;
42701;Laerm;28316;49.504;8.526;2023-03-12T09:26:12;36.36;29.92;47.83;;
42701;Laerm;28316;49.504;8.526;2023-03-12T09:28:38;36.35;31.68;39.70;;
42701;Laerm;28316;49.504;8.526;2023-03-12T09:31:05;36.33;28.67;39.21;;
42701;Laerm;28316;49.504;8.526;2023-03-12T09:33:32;36.33;28.67;39.81;;
42701;Laerm;28316;49.504;8.526;2023-03-12T09:36:00;36.32;30.89;39.21;;
42701;Laerm;28316;49.504;8.526;2023-03-12T09:38:27;36.35;29.92;39.21;;
42701;Laerm;28316;49.504;8.526;2023-03-12T09:40:53;36.33;30.89;39.34;;
42701;Laerm;28316;49.504;8.526;2023-03-12T09:43:39;36.30;28.67;39.70;;
42701;Laerm;28316;49.504;8.526;2023-03-12T09:46:14;36.31;29.92;39.34;;
42701;Laerm;28316;49.504;8.526;2023-03-12T09:48:43;36.31;29.92;39.58;;
42701;Laerm;28316;49.504;8.526;2023-03-12T09:51:38;36.77;29.92;39.46;;
42701;Laerm;28316;49.504;8.526;2023-03-12T09:54:22;36.70;31.68;39.58;;
42701;Laerm;28316;49.504;8.526;2023-03-12T09:56:51;36.72;30.89;39.81;;
42701;Laerm;28316;49.504;8.526;2023-03-12T09:59:19;36.58;31.68;39.34;;
42701;Laerm;28316;49.504;8.526;2023-03-12T10:01:56;36.76;32.35;39.58;;
42701;Laerm;28316;49.504;8.526;2023-03-12T10:07:07;37.01;32.93;39.34;;
42701;Laerm;28316;49.504;8.526;2023-03-12T10:12:32;38.00;34.69;40.53;;
42701;Laerm;28316;49.504;8.526;2023-03-12T10:18:50;39.41;37.32;41.46;;
42701;Laerm;28316;49.504;8.526;2023-03-12T10:21:43;39.73;37.52;41.53;;
42701;Laerm;28316;49.504;8.526;2023-03-12T10:24:33;39.94;38.21;41.68;;
42701;Laerm;28316;49.504;8.526;2023-03-12T10:27:00;40.16;38.52;41.75;;
42701;Laerm;28316;49.504;8.526;2023-03-12T10:29:32;40.39;38.52;42.82;;
42701;Laerm;28316;49.504;8.526;2023-03-12T10:32:15;40.80;38.95;42.16;;
42701;Laerm;28316;49.504;8.526;2023-03-12T10:34:59;41.07;39.21;42.29;;
42701;Laerm;28316;49.504;8.526;2023-03-12T10:37:34;40.90;39.34;42.93;;
42701;Laerm;28316;49.504;8.526;2023-03-12T10:40:02;41.08;39.34;46.30;;
42701;Laerm;28316;49.504;8.526;2023-03-12T10:42:30;41.02;39.21;44.76;;
42701;Laerm;28316;49.504;8.526;2023-03-12T10:45:20;41.24;39.81;43.14;;
42701;Laerm;28316;49.504;8.526;2023-03-12T10:47:52;41.13;39.70;42.47;;
42701;Laerm;28316;49.504;8.526;2023-03-12T10:50:31;40.83;39.34;42.09;;
42701;Laerm;28316;49.504;8.526;2023-03-12T10:53:31;40.50;38.52;44.15;;
42701;Laerm;28316;49.504;8.526;2023-03-12T10:56:15;40.02;38.37;42.41;;
42701;Laerm;28316;49.504;8.526;2023-03-12T10:58:50;39.97;38.21;41.82;;
42701;Laerm;28316;49.504;8.526;2023-03-12T11:01:24;40.06;38.21;42.22;;
42701;Laerm;28316;49.504;8.526;2023-03-12T11:03:53;40.30;38.52;41.75;;
42701;Laerm;28316;49.504;8.526;2023-03-12T11:06:32;40.25;38.37;41.61;;
42701;Laerm;28316;49.504;8.526;2023-03-12T11:09:15;40.19;38.05;41.89;;
42701;Laerm;28316;49.504;8.526;2023-03-12T11:11:42;40.13;38.05;41.53;;
42701;Laerm;28316;49.504;8.526;2023-03-12T11:14:22;40.05;38.21;41.46;;
42701;Laerm;28316;49.504;8.526;2023-03-12T11:16:50;40.14;38.37;41.82;;
42701;Laerm;28316;49.504;8.526;2023-03-12T11:19:32;40.10;38.37;42.09;;
42701;Laerm;28316;49.504;8.526;2023-03-12T11:22:05;40.07;38.37;41.53;;
42701;Laerm;28316;49.504;8.526;2023-03-12T11:24:32;40.10;38.37;41.53;;
42701;Laerm;28316;49.504;8.526;2023-03-12T11:29:55;40.29;38.37;41.89;;
42701;Laerm;28316;49.504;8.526;2023-03-12T11:32:32;40.60;39.08;42.03;;
42701;Laerm;28316;49.504;8.526;2023-03-12T11:35:00;40.75;39.08;42.03;;
42701;Laerm;28316;49.504;8.526;2023-03-12T11:41:12;41.33;39.81;42.53;;
42701;Laerm;28316;49.504;8.526;2023-03-12T11:44:14;41.53;40.23;42.71;;
42701;Laerm;28316;49.504;8.526;2023-03-12T11:53:42;41.86;40.53;43.09;;
42701;Laerm;28316;49.504;8.526;2023-03-12T12:02:10;42.04;40.71;43.09;;
42701;Laerm;28316;49.504;8.526;2023-03-12T12:05:20;42.06;40.62;43.19;;
42701;Laerm;28316;49.504;8.526;2023-03-12T12:14:00;42.10;40.80;43.14;;
42701;Laerm;28316;49.504;8.526;2023-03-12T12:22:33;42.09;40.13;43.19;;
42701;Laerm;28316;49.504;8.526;2023-03-12T12:25:21;42.10;40.89;43.14;;
42701;Laerm;28316;49.504;8.526;2023-03-12T12:31:11;42.11;40.89;43.14;;
42701;Laerm;28316;49.504;8.526;2023-03-12T12:34:04;42.10;41.06;43.34;;
42701;Laerm;28316;49.504;8.526;2023-03-12T12:36:34;42.09;40.71;43.34;;
42701;Laerm;28316;49.504;8.526;2023-03-12T12:41:53;42.12;40.80;43.34;;
42701;Laerm;28316;49.504;8.526;2023-03-12T12:44:31;42.12;40.80;43.29;;
42701;Laerm;28316;49.504;8.526;2023-03-12T12:47:05;42.08;40.71;43.14;;
42701;Laerm;28316;49.504;8.526;2023-03-12T12:49:53;42.01;40.53;43.34;;
42701;Laerm;28316;49.504;8.526;2023-03-12T12:52:22;41.96;40.71;43.14;;
42701;Laerm;28316;49.504;8.526;2023-03-12T12:55:20;41.94;40.62;42.93;;
42701;Laerm;28316;49.504;8.526;2023-03-12T12:57:58;41.94;40.71;43.14;;
42701;Laerm;28316;49.504;8.526;2023-03-12T13:01:00;41.90;40.62;43.09;;
42701;Laerm;28316;49.504;8.526;2023-03-12T13:03:27;41.86;40.62;42.98;;
42701;Laerm;28316;49.504;8.526;2023-03-12T13:06:01;41.93;40.53;42.98;;
42701;Laerm;28316;49.504;8.526;2023-03-12T13:08:57;42.11;40.62;43.34;;
42701;Laerm;28316;49.504;8.526;2023-03-12T13:11:40;42.12;40.80;43.19;;
42701;Laerm;28316;49.504;8.526;2023-03-12T13:16:36;42.05;40.71;43.34;;
42701;Laerm;28316;49.504;8.526;2023-03-12T13:19:24;42.03;40.80;43.14;;
42701;Laerm;28316;49.504;8.526;2023-03-12T13:27:39;41.95;40.43;43.14;;
42701;Laerm;28316;49.504;8.526;2023-03-12T13:40:34;41.98;40.62;43.19;;
42701;Laerm;28316;49.504;8.526;2023-03-12T13:43:40;41.99;40.53;46.52;;
42701;Laerm;28316;49.504;8.526;2023-03-12T13:46:10;41.91;40.23;43.24;;
42701;Laerm;28316;49.504;8.526;2023-03-12T13:48:46;41.89;40.33;45.57;;
42701;Laerm;28316;49.504;8.526;2023-03-12T13:51:19;41.87;40.33;43.09;;
42701;Laerm;28316;49.504;8.526;2023-03-12T13:53:54;41.88;40.43;43.09;;
42701;Laerm;28316;49.504;8.526;2023-03-12T13:56:32;41.99;40.33;50.89;;
42701;Laerm;28316;49.504;8.526;2023-03-12T13:59:06;41.84;40.23;46.52;;
42701;Laerm;28316;49.504;8.526;2023-03-12T14:01:42;41.78;40.03;44.03;;
42701;Laerm;28316;49.504;8.526;2023-03-12T14:04:19;42.11;39.92;52.62;;
42701;Laerm;28316;49.504;8.526;2023-03-12T14:13:03;42.79;39.92;57.73;;
42701;Laerm;28316;49.504;8.526;2023-03-12T14:18:25;42.01;40.13;54.69;;
42701;Laerm;28316;49.504;8.526;2023-03-12T14:20:58;43.42;39.92;59.32;;
42701;Laerm;28316;49.504;8.526;2023-03-12T14:23:29;43.83;40.13;65.19;;
42701;Laerm;28316;49.504;8.526;2023-03-12T14:26:01;41.73;40.13;45.36;;
42701;Laerm;28316;49.504;8.526;2023-03-12T14:28:27;41.85;40.13;51.21;;
42701;Laerm;28316;49.504;8.526;2023-03-12T14:31:08;41.81;39.81;51.53;;
42701;Laerm;28316;49.504;8.526;2023-03-12T14:36:59;42.06;40.23;54.31;;
42701;Laerm;28316;49.504;8.526;2023-03-12T14:42:04;41.88;40.23;46.57;;
42701;Laerm;28316;49.504;8.526;2023-03-12T14:44:32;41.90;40.43;45.54;;
42701;Laerm;28316;49.504;8.526;2023-03-12T14:47:05;42.04;40.03;49.62;;
42701;Laerm;28316;49.504;8.526;2023-03-12T14:49:45;42.09;40.23;48.46;;
42701;Laerm;28316;49.504;8.526;2023-03-12T14:52:14;42.10;40.53;50.75;;
42701;Laerm;28316;49.504;8.526;2023-03-12T14:54:58;41.97;40.53;43.90;;
42701;Laerm;28316;49.504;8.526;2023-03-12T14:57:25;42.12;40.53;52.57;;
42701;Laerm;28316;49.504;8.526;2023-03-12T14:59:59;42.27;40.62;52.84;;
42701;Laerm;28316;49.504;8.526;2023-03-12T15:02:27;42.04;40.43;50.45;;
42701;Laerm;28316;49.504;8.526;2023-03-12T15:04:58;42.20;40.53;49.46;;
42701;Laerm;28316;49.504;8.526;2023-03-12T15:07:31;42.26;40.23;55.46;;
42701;Laerm;28316;49.504;8.526;2023-03-12T15:09:58;42.19;40.71;54.21;;
42701;Laerm;28316;49.504;8.526;2023-03-12T15:12:36;41.98;40.43;43.34;;
42701;Laerm;28316;49.504;8.526;2023-03-12T15:15:09;42.00;40.43;45.94;;
42701;Laerm;28316;49.504;8.526;2023-03-12T15:17:39;42.04;40.53;48.03;;
42701;Laerm;28316;49.504;8.526;2023-03-12T15:20:06;41.97;40.62;46.55;;
42701;Laerm;28316;49.504;8.526;2023-03-12T15:22:35;42.00;40.62;44.23;;
42701;Laerm;28316;49.504;8.526;2023-03-12T15:25:20;42.48;40.62;55.43;;
42701;Laerm;28316;49.504;8.526;2023-03-12T15:27:46;42.41;40.80;55.23;;
42701;Laerm;28316;49.504;8.526;2023-03-12T15:30:24;42.00;40.53;43.19;;